createdAt,value
2018-08-06T00:00:55.071Z,24.27
2018-08-06T00:03:25.168Z,24.29
2018-08-06T00:05:55.282Z,24.25
2018-08-06T00:08:24.810Z,24.19
2018-08-06T00:10:53.963Z,24.05
2018-08-06T00:13:23.537Z,23.98
2018-08-06T00:15:52.513Z,24.05
2018-08-06T00:18:21.641Z,23.99
2018-08-06T00:20:50.668Z,24.10
2018-08-06T00:23:19.732Z,23.96
2018-08-06T00:25:48.259Z,24.07
2018-08-06T00:28:17.291Z,23.97
2018-08-06T00:30:47.460Z,23.88
2018-08-06T00:33:17.046Z,23.83
2018-08-06T00:35:47.188Z,23.66
2018-08-06T00:38:16.996Z,23.69
2018-08-06T00:40:46.911Z,23.74
2018-08-06T00:43:16.007Z,23.75
2018-08-06T00:45:46.425Z,23.78
2018-08-06T00:48:15.458Z,23.57
2018-08-06T00:50:44.708Z,23.49
2018-08-06T00:53:13.948Z,23.42
2018-08-06T00:55:42.846Z,23.40
2018-08-06T00:58:12.035Z,23.30
2018-08-06T01:00:41.232Z,23.21
2018-08-06T01:03:11.223Z,23.19
2018-08-06T01:05:41.451Z,23.17
2018-08-06T01:08:10.711Z,23.15
2018-08-06T01:10:40.216Z,23.17
2018-08-06T01:13:10.796Z,23.08
2018-08-06T01:15:39.977Z,22.96
2018-08-06T01:18:09.323Z,22.92
2018-08-06T01:20:38.723Z,22.99
2018-08-06T01:23:08.611Z,23.03
2018-08-06T01:25:39.860Z,23.01
2018-08-06T01:28:09.029Z,22.95
2018-08-06T01:30:41.685Z,23.00
2018-08-06T01:33:13.271Z,22.81
2018-08-06T01:35:46.325Z,22.83
2018-08-06T01:38:17.002Z,22.80
2018-08-06T01:40:47.414Z,22.77
2018-08-06T01:43:18.666Z,22.77
2018-08-06T01:45:49.110Z,22.70
2018-08-06T01:48:18.613Z,22.58
2018-08-06T01:50:47.912Z,22.50
2018-08-06T01:53:18.565Z,22.53
2018-08-06T01:55:48.804Z,22.50
2018-08-06T01:58:19.942Z,22.50
2018-08-06T02:00:50.908Z,22.58
2018-08-06T02:03:21.104Z,22.74
2018-08-06T02:05:51.018Z,22.70
2018-08-06T02:08:21.820Z,22.63
2018-08-06T02:10:51.843Z,22.64
2018-08-06T02:13:21.704Z,22.54
2018-08-06T02:15:52.447Z,22.44
2018-08-06T02:18:22.021Z,22.41
2018-08-06T02:20:53.466Z,22.36
2018-08-06T02:23:24.510Z,22.33
2018-08-06T02:25:54.639Z,22.34
2018-08-06T02:28:24.629Z,22.40
2018-08-06T02:30:54.533Z,22.35
2018-08-06T02:33:24.767Z,22.31
2018-08-06T02:35:57.701Z,22.19
2018-08-06T02:38:29.965Z,22.16
2018-08-06T02:41:00.253Z,22.19
2018-08-06T02:43:29.492Z,22.25
2018-08-06T02:45:59.709Z,22.14
2018-08-06T02:48:29.415Z,22.06
2018-08-06T02:51:00.974Z,22.13
2018-08-06T02:53:32.315Z,22.03
2018-08-06T02:56:02.528Z,21.98
2018-08-06T02:58:34.218Z,21.93
2018-08-06T03:01:05.463Z,21.86
2018-08-06T03:03:36.932Z,21.83
2018-08-06T03:06:17.460Z,21.77
2018-08-06T03:08:49.089Z,21.83
2018-08-06T03:11:20.637Z,21.77
2018-08-06T03:13:50.570Z,21.74
2018-08-06T03:16:22.172Z,21.69
2018-08-06T03:18:52.254Z,21.60
2018-08-06T03:21:24.755Z,21.64
2018-08-06T03:23:56.756Z,21.66
2018-08-06T03:26:28.004Z,21.68
2018-08-06T03:29:00.344Z,21.64
2018-08-06T03:31:31.470Z,21.65
2018-08-06T03:34:03.533Z,21.75
2018-08-06T03:36:34.402Z,21.74
2018-08-06T03:39:08.075Z,21.68
2018-08-06T03:41:36.878Z,21.73
2018-08-06T03:44:08.705Z,21.68
2018-08-06T03:46:40.052Z,21.55
2018-08-06T03:49:10.660Z,21.56
2018-08-06T03:51:41.281Z,21.61
2018-08-06T03:54:12.194Z,21.63
2018-08-06T03:56:45.404Z,21.63
2018-08-06T03:59:16.295Z,21.61
2018-08-06T04:01:49.488Z,21.65
2018-08-06T04:04:19.772Z,21.65
2018-08-06T04:06:51.848Z,21.64
2018-08-06T04:09:22.009Z,21.53
2018-08-06T04:11:54.372Z,21.53
2018-08-06T04:14:25.239Z,21.36
2018-08-06T04:16:58.051Z,21.38
2018-08-06T04:19:30.579Z,21.33
2018-08-06T04:22:03.133Z,21.36
2018-08-06T04:24:34.612Z,21.37
2018-08-06T04:27:05.447Z,21.47
2018-08-06T04:29:35.883Z,21.55
2018-08-06T04:32:09.307Z,21.69
2018-08-06T04:34:41.420Z,21.74
2018-08-06T04:37:11.729Z,21.73
2018-08-06T04:39:42.499Z,21.66
2018-08-06T04:42:17.942Z,21.66
2018-08-06T04:44:49.742Z,21.67
2018-08-06T04:47:20.585Z,21.72
2018-08-06T04:49:58.306Z,21.80
2018-08-06T04:52:30.893Z,21.84
2018-08-06T04:55:01.181Z,21.96
2018-08-06T04:57:33.929Z,22.14
2018-08-06T05:00:08.912Z,22.17
2018-08-06T05:02:42.311Z,22.18
2018-08-06T05:05:11.984Z,22.16
2018-08-06T05:07:48.051Z,22.33
2018-08-06T05:10:19.514Z,22.38
2018-08-06T05:12:50.437Z,22.49
2018-08-06T05:15:20.641Z,22.52
2018-08-06T05:17:51.562Z,22.58
2018-08-06T05:20:22.547Z,22.67
2018-08-06T05:22:53.449Z,22.85
2018-08-06T05:25:24.435Z,22.93
2018-08-06T05:27:59.158Z,22.89
2018-08-06T05:30:31.040Z,22.92
2018-08-06T05:33:02.820Z,23.02
2018-08-06T05:35:36.027Z,23.01
2018-08-06T05:38:07.604Z,23.03
2018-08-06T05:40:38.416Z,23.12
2018-08-06T05:43:13.725Z,23.27
2018-08-06T05:45:46.903Z,23.24
2018-08-06T05:48:19.808Z,23.41
2018-08-06T05:50:50.345Z,23.43
2018-08-06T05:53:21.266Z,23.52
2018-08-06T05:55:55.881Z,23.52
2018-08-06T05:58:26.298Z,23.50
2018-08-06T06:01:00.032Z,23.59
2018-08-06T06:03:31.439Z,23.52
2018-08-06T06:06:01.764Z,23.66
2018-08-06T06:08:36.708Z,23.82
2018-08-06T06:11:09.471Z,23.92
2018-08-06T06:13:39.860Z,23.94
2018-08-06T06:16:10.145Z,24.09
2018-08-06T06:18:41.627Z,23.92
2018-08-06T06:21:13.881Z,24.20
2018-08-06T06:23:45.681Z,24.28
2018-08-06T06:26:16.581Z,24.15
2018-08-06T06:28:48.863Z,24.22
2018-08-06T06:31:25.215Z,24.32
2018-08-06T06:33:56.626Z,24.48
2018-08-06T06:36:29.658Z,24.58
2018-08-06T06:39:01.354Z,24.59
2018-08-06T06:41:32.321Z,24.72
2018-08-06T06:44:06.753Z,24.95
2018-08-06T06:46:41.306Z,24.83
2018-08-06T06:49:11.872Z,24.89
2018-08-06T06:51:47.731Z,25.03
2018-08-06T06:54:18.981Z,25.20
2018-08-06T06:56:50.695Z,25.22
2018-08-06T06:59:22.875Z,25.37
2018-08-06T07:01:58.053Z,25.44
2018-08-06T07:04:29.673Z,25.70
2018-08-06T07:07:02.500Z,25.59
2018-08-06T07:09:34.856Z,25.81
2018-08-06T07:12:05.464Z,25.82
2018-08-06T07:14:36.073Z,25.93
2018-08-06T07:17:08.668Z,25.94
2018-08-06T07:19:40.472Z,26.13
2018-08-06T07:22:12.681Z,26.41
2018-08-06T07:24:44.792Z,26.12
2018-08-06T07:27:14.895Z,26.43
2018-08-06T07:29:46.857Z,26.09
2018-08-06T07:32:19.357Z,26.38
2018-08-06T07:34:51.430Z,26.43
2018-08-06T07:37:22.540Z,26.48
2018-08-06T07:39:55.275Z,26.68
2018-08-06T07:42:30.566Z,26.82
2018-08-06T07:45:03.842Z,26.90
2018-08-06T07:47:35.938Z,27.06
2018-08-06T07:50:09.627Z,27.35
2018-08-06T07:52:40.060Z,27.76
2018-08-06T07:55:11.307Z,27.82
2018-08-06T07:57:43.517Z,27.78
2018-08-06T08:00:19.450Z,27.70
2018-08-06T08:02:51.372Z,28.15
2018-08-06T08:05:21.788Z,28.21
2018-08-06T08:07:53.353Z,28.21
2018-08-06T08:10:26.437Z,28.31
2018-08-06T08:12:57.112Z,28.05
2018-08-06T08:15:29.051Z,28.41
2018-08-06T08:17:58.005Z,29.02
2018-08-06T08:20:28.469Z,29.15
2018-08-06T08:22:59.759Z,29.04
2018-08-06T08:25:32.201Z,29.15
2018-08-06T08:28:05.442Z,28.84
2018-08-06T08:30:36.840Z,29.06
2018-08-06T08:33:09.056Z,28.73
2018-08-06T08:35:42.446Z,29.08
2018-08-06T08:38:13.639Z,28.78
2018-08-06T08:40:48.678Z,29.31
2018-08-06T08:43:20.376Z,29.50
2018-08-06T08:45:52.570Z,29.69
2018-08-06T08:48:23.492Z,29.82
2018-08-06T08:50:53.616Z,29.10
2018-08-06T08:53:23.688Z,29.33
2018-08-06T08:55:54.906Z,29.17
2018-08-06T08:58:26.649Z,29.63
2018-08-06T09:00:58.111Z,29.90
2018-08-06T09:03:31.086Z,29.65
2018-08-06T09:06:03.794Z,30.01
2018-08-06T09:08:34.081Z,30.13
2018-08-06T09:11:04.947Z,30.15
2018-08-06T09:13:37.610Z,30.36
2018-08-06T09:16:09.811Z,30.66
2018-08-06T09:18:41.626Z,30.80
2018-08-06T09:21:14.509Z,30.94
2018-08-06T09:23:49.277Z,31.20
2018-08-06T09:26:21.117Z,30.92
2018-08-06T09:28:52.648Z,30.86
2018-08-06T09:31:24.354Z,31.18
2018-08-06T09:33:58.421Z,30.95
2018-08-06T09:36:31.187Z,30.92
2018-08-06T09:39:03.137Z,31.16
2018-08-06T09:41:36.637Z,31.37
2018-08-06T09:44:08.062Z,31.58
2018-08-06T09:46:38.908Z,31.71
2018-08-06T09:49:12.146Z,31.58
2018-08-06T09:51:44.650Z,31.56
2018-08-06T09:54:21.036Z,32.10
2018-08-06T09:56:52.790Z,32.46
2018-08-06T09:59:25.545Z,32.94
2018-08-06T10:01:57.077Z,32.60
2018-08-06T10:04:30.687Z,32.93
2018-08-06T10:06:59.859Z,32.81
2018-08-06T10:09:33.385Z,33.12
2018-08-06T10:12:07.195Z,33.55
2018-08-06T10:14:41.840Z,33.28
2018-08-06T10:17:12.662Z,33.40
2018-08-06T10:19:48.869Z,33.61
2018-08-06T10:22:20.269Z,33.27
2018-08-06T10:24:53.028Z,32.95
2018-08-06T10:27:24.458Z,32.80
2018-08-06T10:29:56.239Z,33.38
2018-08-06T10:32:29.924Z,33.90
2018-08-06T10:35:00.842Z,34.07
2018-08-06T10:37:33.230Z,34.22
2018-08-06T10:40:05.341Z,34.84
2018-08-06T10:42:36.859Z,34.33
2018-08-06T10:45:12.865Z,34.49
2018-08-06T10:47:43.031Z,33.96
2018-08-06T10:50:13.746Z,34.35
2018-08-06T10:52:44.139Z,34.37
2018-08-06T10:55:15.755Z,34.51
2018-08-06T10:57:47.463Z,34.82
2018-08-06T11:00:22.581Z,35.43
2018-08-06T11:02:54.113Z,34.91
2018-08-06T11:05:24.455Z,35.10
2018-08-06T11:07:56.354Z,35.04
2018-08-06T11:10:27.071Z,34.47
2018-08-06T11:13:00.766Z,34.99
2018-08-06T11:15:33.511Z,35.54
2018-08-06T11:18:06.341Z,36.09
2018-08-06T11:20:35.217Z,35.76
2018-08-06T11:23:07.443Z,35.37
2018-08-06T11:25:37.898Z,35.91
2018-08-06T11:28:10.467Z,36.15
2018-08-06T11:30:41.935Z,36.18
2018-08-06T11:33:13.571Z,35.38
2018-08-06T11:35:49.715Z,35.77
2018-08-06T11:38:20.450Z,36.40
2018-08-06T11:40:54.969Z,36.26
2018-08-06T11:43:27.106Z,35.64
2018-08-06T11:46:00.622Z,35.72
2018-08-06T11:48:32.407Z,35.63
2018-08-06T11:51:04.712Z,35.71
2018-08-06T11:53:35.371Z,35.56
2018-08-06T11:56:08.375Z,36.15
2018-08-06T11:58:39.204Z,36.33
2018-08-06T12:01:11.238Z,36.66
2018-08-06T12:03:43.931Z,36.33
2018-08-06T12:06:15.256Z,36.41
2018-08-06T12:08:45.979Z,36.70
2018-08-06T12:11:17.650Z,36.37
2018-08-06T12:13:48.248Z,36.20
2018-08-06T12:16:23.769Z,36.21
2018-08-06T12:18:55.812Z,36.32
2018-08-06T12:21:27.195Z,36.76
2018-08-06T12:23:59.034Z,36.56
2018-08-06T12:26:31.230Z,37.29
2018-08-06T12:29:04.502Z,37.88
2018-08-06T12:31:36.146Z,38.37
2018-08-06T12:34:07.876Z,37.96
2018-08-06T12:36:41.180Z,38.57
2018-08-06T12:39:15.105Z,37.95
2018-08-06T12:41:44.870Z,38.12
2018-08-06T12:44:16.639Z,38.11
2018-08-06T12:46:46.194Z,37.71
2018-08-06T12:49:17.996Z,38.15
2018-08-06T12:51:48.595Z,38.23
2018-08-06T12:54:17.308Z,38.03
2018-08-06T12:56:45.507Z,38.33
2018-08-06T12:59:14.082Z,39.08
2018-08-06T13:01:43.333Z,38.53
2018-08-06T13:04:11.515Z,38.32
2018-08-06T13:06:39.725Z,38.82
2018-08-06T13:09:09.233Z,39.12
2018-08-06T13:11:37.646Z,39.60
2018-08-06T13:14:06.538Z,39.17
2018-08-06T13:16:34.861Z,38.74
2018-08-06T13:19:03.051Z,38.80
2018-08-06T13:21:32.313Z,37.85
2018-08-06T13:24:00.762Z,38.67
2018-08-06T13:26:29.009Z,40.36
2018-08-06T13:28:57.491Z,40.50
2018-08-06T13:31:27.038Z,41.03
2018-08-06T13:33:55.613Z,41.06
2018-08-06T13:36:23.853Z,39.82
2018-08-06T13:38:52.093Z,40.25
2018-08-06T13:41:21.845Z,41.42
2018-08-06T13:43:50.092Z,42.97
2018-08-06T13:46:18.658Z,43.89
2018-08-06T13:48:46.932Z,45.12
2018-08-06T13:51:15.452Z,45.84
2018-08-06T13:53:44.450Z,46.21
2018-08-06T13:56:13.445Z,45.70
2018-08-06T13:58:41.699Z,45.73
2018-08-06T14:01:10.914Z,48.15
2018-08-06T14:03:39.906Z,48.40
2018-08-06T14:06:08.234Z,49.27
2018-08-06T14:08:36.415Z,50.38
2018-08-06T14:11:04.628Z,48.96
2018-08-06T14:13:33.201Z,48.95
2018-08-06T14:16:01.480Z,48.98
2018-08-06T14:18:29.733Z,49.97
2018-08-06T14:20:57.983Z,49.53
2018-08-06T14:23:26.537Z,49.89
2018-08-06T14:25:56.611Z,51.09
2018-08-06T14:28:24.867Z,48.99
2018-08-06T14:30:53.425Z,49.22
2018-08-06T14:33:22.205Z,50.16
2018-08-06T14:35:50.827Z,50.15
2018-08-06T14:38:19.192Z,49.25
2018-08-06T14:40:47.739Z,49.97
2018-08-06T14:43:16.820Z,49.41
2018-08-06T14:45:45.423Z,49.75
2018-08-06T14:48:13.702Z,49.83
2018-08-06T14:50:43.413Z,50.48
2018-08-06T14:53:11.701Z,48.82
2018-08-06T14:55:39.903Z,50.15
2018-08-06T14:58:08.704Z,51.96
2018-08-06T15:00:37.224Z,49.01
2018-08-06T15:03:05.974Z,49.46
2018-08-06T15:05:34.198Z,48.91
2018-08-06T15:08:02.613Z,49.82
2018-08-06T15:10:30.932Z,49.50
2018-08-06T15:12:59.458Z,49.01
2018-08-06T15:15:27.881Z,49.28
2018-08-06T15:17:55.990Z,50.58
2018-08-06T15:20:24.244Z,50.30
2018-08-06T15:22:52.752Z,50.75
2018-08-06T15:25:23.633Z,48.47
2018-08-06T15:27:51.877Z,49.15
2018-08-06T15:30:20.136Z,49.76
2018-08-06T15:32:48.460Z,49.66
2018-08-06T15:35:16.860Z,48.41
2018-08-06T15:37:45.256Z,50.08
2018-08-06T15:40:16.966Z,50.32
2018-08-06T15:42:45.546Z,48.55
2018-08-06T15:45:14.927Z,50.44
2018-08-06T15:47:44.060Z,50.42
2018-08-06T15:50:19.138Z,50.94
2018-08-06T15:52:47.839Z,49.46
2018-08-06T15:55:16.057Z,49.84
2018-08-06T15:57:44.410Z,50.27
2018-08-06T16:00:15.499Z,49.76
2018-08-06T16:02:44.729Z,49.39
2018-08-06T16:05:14.158Z,49.03
2018-08-06T16:07:43.692Z,48.99
2018-08-06T16:10:12.578Z,48.67
2018-08-06T16:12:41.246Z,47.97
2018-08-06T16:15:11.334Z,49.06
2018-08-06T16:17:40.714Z,48.78
2018-08-06T16:20:13.080Z,48.02
2018-08-06T16:22:41.913Z,47.20
2018-08-06T16:25:10.975Z,47.39
2018-08-06T16:27:39.199Z,47.46
2018-08-06T16:30:15.477Z,46.65
2018-08-06T16:32:44.853Z,47.24
2018-08-06T16:35:13.126Z,47.71
2018-08-06T16:37:41.779Z,47.60
2018-08-06T16:40:10.966Z,46.75
2018-08-06T16:42:39.204Z,47.32
2018-08-06T16:45:08.181Z,46.57
2018-08-06T16:47:37.528Z,47.51
2018-08-06T16:50:08.100Z,47.32
2018-08-06T16:52:36.766Z,46.12
2018-08-06T16:55:06.193Z,46.13
2018-08-06T16:57:34.807Z,45.70
2018-08-06T17:00:04.968Z,46.50
2018-08-06T17:02:33.205Z,47.00
2018-08-06T17:05:01.404Z,45.93
2018-08-06T17:07:31.265Z,46.62
2018-08-06T17:09:59.489Z,46.33
2018-08-06T17:12:27.753Z,45.40
2018-08-06T17:14:56.146Z,45.58
2018-08-06T17:17:24.677Z,45.74
2018-08-06T17:19:53.209Z,45.47
2018-08-06T17:22:22.376Z,44.67
2018-08-06T17:24:50.762Z,43.85
2018-08-06T17:27:19.768Z,41.87
2018-08-06T17:29:48.533Z,41.36
2018-08-06T17:32:17.104Z,40.25
2018-08-06T17:34:46.311Z,40.68
2018-08-06T17:37:15.151Z,41.45
2018-08-06T17:39:43.423Z,41.96
2018-08-06T17:42:12.692Z,41.37
2018-08-06T17:44:41.204Z,41.44
2018-08-06T17:47:10.088Z,41.23
2018-08-06T17:49:38.921Z,39.84
2018-08-06T17:52:08.196Z,38.44
2018-08-06T17:54:37.077Z,37.85
2018-08-06T17:57:06.138Z,36.96
2018-08-06T17:59:35.858Z,36.94
2018-08-06T18:02:04.903Z,36.74
2018-08-06T18:04:34.002Z,36.28
2018-08-06T18:07:02.348Z,35.96
2018-08-06T18:09:30.949Z,35.56
2018-08-06T18:11:59.181Z,35.17
2018-08-06T18:14:27.723Z,35.24
2018-08-06T18:16:55.928Z,34.98
2018-08-06T18:19:24.621Z,34.72
2018-08-06T18:21:52.982Z,34.39
2018-08-06T18:24:21.201Z,34.61
2018-08-06T18:26:49.449Z,34.61
2018-08-06T18:29:18.150Z,34.52
2018-08-06T18:31:47.019Z,34.30
2018-08-06T18:34:15.200Z,34.08
2018-08-06T18:36:43.488Z,33.93
2018-08-06T18:39:12.678Z,33.88
2018-08-06T18:41:41.991Z,33.89
2018-08-06T18:44:10.141Z,33.66
2018-08-06T18:46:39.309Z,33.42
2018-08-06T18:49:08.472Z,33.32
2018-08-06T18:51:37.424Z,33.22
2018-08-06T18:54:06.242Z,33.02
2018-08-06T18:56:34.879Z,33.11
2018-08-06T18:59:03.446Z,33.46
2018-08-06T19:01:31.877Z,33.28
2018-08-06T19:04:00.361Z,33.05
2018-08-06T19:06:28.880Z,32.89
2018-08-06T19:08:57.324Z,32.99
2018-08-06T19:11:26.104Z,32.85
2018-08-06T19:14:28.443Z,32.84
2018-08-06T19:16:56.601Z,32.61
2018-08-06T19:19:26.321Z,32.46
2018-08-06T19:21:55.770Z,32.43
2018-08-06T19:24:29.766Z,32.32
2018-08-06T19:26:59.482Z,32.22
2018-08-06T19:29:27.668Z,32.08
2018-08-06T19:31:56.847Z,31.40
2018-08-06T19:34:25.640Z,31.12
2018-08-06T19:36:59.498Z,31.17
2018-08-06T19:39:27.934Z,30.99
2018-08-06T19:41:57.479Z,30.68
2018-08-06T19:44:25.690Z,30.44
2018-08-06T19:46:53.879Z,30.30
2018-08-06T19:49:27.658Z,30.32
2018-08-06T19:51:56.589Z,30.41
2018-08-06T19:54:25.236Z,30.25
2018-08-06T19:56:53.706Z,30.01
2018-08-06T19:59:22.593Z,30.12
2018-08-06T20:01:51.461Z,29.87
2018-08-06T20:04:20.260Z,29.94
2018-08-06T20:06:48.480Z,29.95
2018-08-06T20:09:17.027Z,29.85
2018-08-06T20:11:45.795Z,29.86
2018-08-06T20:14:14.399Z,29.67
2018-08-06T20:16:42.861Z,29.67
2018-08-06T20:19:11.177Z,29.78
2018-08-06T20:21:39.702Z,29.86
2018-08-06T20:24:08.476Z,29.80
2018-08-06T20:26:36.785Z,29.62
2018-08-06T20:29:06.022Z,29.35
2018-08-06T20:31:34.279Z,29.41
2018-08-06T20:34:03.440Z,29.39
2018-08-06T20:36:31.625Z,29.43
2018-08-06T20:38:59.840Z,29.26
2018-08-06T20:41:28.961Z,29.16
2018-08-06T20:43:59.099Z,29.14
2018-08-06T20:46:29.093Z,29.38
2018-08-06T20:48:57.753Z,29.32
2018-08-06T20:51:26.307Z,29.25
2018-08-06T20:53:55.400Z,29.35
2018-08-06T20:56:25.458Z,29.06
2018-08-06T20:58:53.964Z,28.97
2018-08-06T21:01:22.473Z,28.89
2018-08-06T21:03:51.637Z,28.81
2018-08-06T21:06:19.828Z,28.89
2018-08-06T21:08:48.236Z,28.90
2018-08-06T21:11:16.583Z,28.80
2018-08-06T21:13:44.813Z,28.62
2018-08-06T21:16:13.394Z,28.62
2018-08-06T21:18:42.115Z,28.57
2018-08-06T21:21:10.648Z,28.57
2018-08-06T21:23:39.146Z,28.45
2018-08-06T21:26:07.349Z,28.53
2018-08-06T21:28:35.561Z,28.30
2018-08-06T21:31:04.181Z,28.04
2018-08-06T21:33:32.386Z,28.07
2018-08-06T21:36:01.483Z,27.94
2018-08-06T21:38:29.599Z,27.98
2018-08-06T21:40:58.064Z,28.09
2018-08-06T21:43:26.306Z,28.06
2018-08-06T21:45:54.836Z,27.98
2018-08-06T21:48:24.390Z,27.99
2018-08-06T21:50:52.650Z,27.99
2018-08-06T21:53:20.924Z,27.90
2018-08-06T21:55:49.226Z,27.84
2018-08-06T21:58:17.749Z,27.86
2018-08-06T22:00:46.599Z,27.78
2018-08-06T22:03:16.484Z,27.81
2018-08-06T22:05:45.179Z,27.70
2018-08-06T22:08:13.714Z,27.68
2018-08-06T22:10:42.031Z,27.69
2018-08-06T22:13:10.713Z,27.46
2018-08-06T22:15:39.255Z,27.63
2018-08-06T22:18:10.425Z,27.54
2018-08-06T22:20:38.940Z,27.42
2018-08-06T22:23:07.666Z,27.21
2018-08-06T22:25:35.852Z,27.22
2018-08-06T22:28:04.697Z,27.33
2018-08-06T22:30:33.179Z,27.41
2018-08-06T22:33:01.761Z,27.32
2018-08-06T22:35:30.312Z,27.30
2018-08-06T22:37:58.743Z,27.23
2018-08-06T22:40:27.201Z,27.17
2018-08-06T22:42:55.705Z,27.11
2018-08-06T22:45:24.686Z,27.15
2018-08-06T22:47:53.372Z,27.21
2018-08-06T22:50:21.557Z,27.11
2018-08-06T22:52:49.874Z,27.09
2018-08-06T22:55:18.614Z,26.95
2018-08-06T22:57:47.203Z,26.87
2018-08-06T23:00:16.477Z,26.81
2018-08-06T23:02:45.682Z,26.78
2018-08-06T23:05:15.632Z,26.70
2018-08-06T23:07:44.117Z,26.55
2018-08-06T23:10:17.128Z,26.53
2018-08-06T23:12:45.604Z,26.43
2018-08-06T23:15:16.661Z,26.33
2018-08-06T23:17:45.809Z,26.27
2018-08-06T23:20:21.023Z,26.12
2018-08-06T23:22:49.360Z,26.12
2018-08-06T23:25:19.824Z,26.03
2018-08-06T23:27:47.997Z,26.01
2018-08-06T23:30:16.156Z,25.98
2018-08-06T23:32:45.084Z,26.03
2018-08-06T23:35:13.809Z,26.07
2018-08-06T23:37:43.905Z,26.02
2018-08-06T23:40:14.057Z,25.99
2018-08-06T23:42:43.284Z,26.08
2018-08-06T23:45:14.479Z,26.16
2018-08-06T23:47:43.775Z,26.10
2018-08-06T23:50:13.948Z,26.16
2018-08-06T23:52:43.366Z,26.23
2018-08-06T23:55:13.522Z,26.18
2018-08-06T23:57:42.132Z,26.16
